createdAt,value
2023-03-21T00:00:12.427Z,81.55
2023-03-21T00:02:40.366Z,80.87
2023-03-21T00:05:15.725Z,80.91
2023-03-21T00:07:43.040Z,80.17
2023-03-21T00:10:16.613Z,79.10
2023-03-21T00:12:48.982Z,78.69
2023-03-21T00:15:16.100Z,78.73
2023-03-21T00:17:43.194Z,75.66
2023-03-21T00:20:11.411Z,72.59
2023-03-21T00:22:44.104Z,76.25
2023-03-21T00:25:11.183Z,79.49
2023-03-21T00:27:56.806Z,80.96
2023-03-21T00:30:27.657Z,82.14
2023-03-21T00:32:56.744Z,82.71
2023-03-21T00:36:12.573Z,81.98
2023-03-21T00:38:15.457Z,81.68
2023-03-21T00:40:48.838Z,82.06
2023-03-21T00:43:16.628Z,82.39
2023-03-21T00:45:44.548Z,82.02
2023-03-21T00:48:13.630Z,82.00
2023-03-21T00:50:41.380Z,81.91
2023-03-21T00:53:08.575Z,81.01
2023-03-21T00:55:38.548Z,80.88
2023-03-21T00:58:06.210Z,81.03
2023-03-21T01:00:36.590Z,80.41
2023-03-21T01:03:23.215Z,79.96
2023-03-21T01:05:51.234Z,80.11
2023-03-21T01:08:30.978Z,80.53
2023-03-21T01:11:02.474Z,80.41
2023-03-21T01:13:29.654Z,80.89
2023-03-21T01:16:02.597Z,80.37
2023-03-21T01:18:30.120Z,80.90
2023-03-21T01:20:57.566Z,81.19
2023-03-21T01:23:24.667Z,80.77
2023-03-21T01:25:57.915Z,80.66
2023-03-21T01:28:33.912Z,81.56
2023-03-21T01:31:01.648Z,80.80
2023-03-21T01:33:28.823Z,80.66
2023-03-21T01:36:10.304Z,81.22
2023-03-21T01:38:42.855Z,80.63
2023-03-21T01:41:33.606Z,80.67
2023-03-21T01:44:25.064Z,81.46
2023-03-21T01:47:11.023Z,81.35
2023-03-21T01:49:42.382Z,81.90
2023-03-21T01:52:35.396Z,81.63
2023-03-21T01:55:05.002Z,82.43
2023-03-21T01:58:02.025Z,82.93
2023-03-21T02:00:31.412Z,82.03
2023-03-21T02:03:11.145Z,82.63
2023-03-21T02:05:56.678Z,82.61
2023-03-21T02:08:36.885Z,82.87
2023-03-21T02:11:06.214Z,83.36
2023-03-21T02:13:38.970Z,83.04
2023-03-21T02:16:14.389Z,83.01
2023-03-21T02:18:54.322Z,82.77
2023-03-21T02:21:53.860Z,82.97
2023-03-21T02:27:35.384Z,83.17
2023-03-21T02:30:33.564Z,82.86
2023-03-21T02:33:38.045Z,82.61
2023-03-21T02:36:21.829Z,82.64
2023-03-21T02:39:20.123Z,82.53
2023-03-21T02:42:35.558Z,82.87
2023-03-21T02:45:10.452Z,82.90
2023-03-21T02:47:48.044Z,83.03
2023-03-21T02:50:29.059Z,82.73
2023-03-21T02:53:01.148Z,82.61
2023-03-21T02:55:30.101Z,83.45
2023-03-21T02:58:06.855Z,83.55
2023-03-21T03:00:38.285Z,83.09
2023-03-21T03:03:11.392Z,83.01
2023-03-21T03:05:49.696Z,83.17
2023-03-21T03:09:02.184Z,83.19
2023-03-21T03:11:38.488Z,82.78
2023-03-21T03:14:46.792Z,82.85
2023-03-21T03:17:39.883Z,82.81
2023-03-21T03:20:37.655Z,82.91
2023-03-21T03:23:43.220Z,82.69
2023-03-21T03:26:16.761Z,83.33
2023-03-21T03:28:47.583Z,83.19
2023-03-21T03:31:17.378Z,82.81
2023-03-21T03:33:46.316Z,82.85
2023-03-21T03:36:30.345Z,82.67
2023-03-21T03:39:04.839Z,82.98
2023-03-21T03:42:05.870Z,82.80
2023-03-21T03:44:31.740Z,83.13
2023-03-21T03:47:04.946Z,82.90
2023-03-21T03:50:13.497Z,83.04
2023-03-21T03:52:56.196Z,82.39
2023-03-21T03:55:28.906Z,82.43
2023-03-21T03:57:55.985Z,82.75
2023-03-21T04:00:23.066Z,82.77
2023-03-21T04:02:49.865Z,83.20
2023-03-21T04:05:23.543Z,83.54
2023-03-21T04:07:50.578Z,83.10
2023-03-21T04:10:20.546Z,83.11
2023-03-21T04:12:47.641Z,83.11
2023-03-21T04:15:15.061Z,82.81
2023-03-21T04:17:42.025Z,82.44
2023-03-21T04:20:16.743Z,82.99
2023-03-21T04:22:50.898Z,83.56
2023-03-21T04:25:32.364Z,83.30
2023-03-21T04:28:01.065Z,83.50
2023-03-21T04:30:28.207Z,84.03
2023-03-21T04:32:55.892Z,84.18
2023-03-21T04:35:28.220Z,83.86
2023-03-21T04:37:55.384Z,83.58
2023-03-21T04:40:22.478Z,84.25
2023-03-21T04:42:51.156Z,84.21
2023-03-21T04:45:17.911Z,83.67
2023-03-21T04:47:44.988Z,83.53
2023-03-21T04:50:12.575Z,83.26
2023-03-21T04:52:42.415Z,83.47
2023-03-21T04:55:09.356Z,83.86
2023-03-21T04:57:39.003Z,84.05
2023-03-21T05:00:09.920Z,84.08
2023-03-21T05:02:42.773Z,84.49
2023-03-21T05:05:10.085Z,84.47
2023-03-21T05:07:38.369Z,84.05
2023-03-21T05:10:06.181Z,83.61
2023-03-21T05:12:33.221Z,84.49
2023-03-21T05:15:00.864Z,84.98
2023-03-21T05:17:28.657Z,84.99
2023-03-21T05:19:55.792Z,85.12
2023-03-21T05:22:22.996Z,85.03
2023-03-21T05:24:50.568Z,85.11
2023-03-21T05:27:18.059Z,84.51
2023-03-21T05:29:49.996Z,84.76
2023-03-21T05:32:20.001Z,84.47
2023-03-21T05:34:47.049Z,84.72
2023-03-21T05:37:14.058Z,84.10
2023-03-21T05:39:41.254Z,84.21
2023-03-21T05:42:08.367Z,84.03
2023-03-21T05:44:42.436Z,84.46
2023-03-21T05:47:09.762Z,84.71
2023-03-21T05:49:37.495Z,84.32
2023-03-21T05:52:05.546Z,84.39
2023-03-21T05:54:35.060Z,84.16
2023-03-21T05:57:04.073Z,84.03
2023-03-21T05:59:31.885Z,83.99
2023-03-21T06:01:59.081Z,83.71
2023-03-21T06:04:26.855Z,84.29
2023-03-21T06:07:17.479Z,83.69
2023-03-21T06:09:46.933Z,83.40
2023-03-21T06:12:15.653Z,83.34
2023-03-21T06:14:42.474Z,82.77
2023-03-21T06:17:09.225Z,83.09
2023-03-21T06:19:36.049Z,82.68
2023-03-21T06:22:02.919Z,82.74
2023-03-21T06:24:29.835Z,82.95
2023-03-21T06:26:56.557Z,83.12
2023-03-21T06:29:23.379Z,82.53
2023-03-21T06:31:52.905Z,82.35
2023-03-21T06:34:21.306Z,81.60
2023-03-21T06:36:48.152Z,81.29
2023-03-21T06:39:15.162Z,80.49
2023-03-21T06:41:42.371Z,79.57
2023-03-21T06:44:12.052Z,77.26
2023-03-21T06:50:26.497Z,76.02
2023-03-21T06:52:53.714Z,77.01
2023-03-21T06:55:20.483Z,76.19
2023-03-21T06:57:47.333Z,75.59
2023-03-21T07:00:14.381Z,73.71
2023-03-21T07:02:41.739Z,70.87
2023-03-21T07:05:10.317Z,68.87
2023-03-21T07:07:37.453Z,67.02
2023-03-21T07:10:05.739Z,66.69
2023-03-21T07:12:33.221Z,64.85
2023-03-21T07:15:00.858Z,64.68
2023-03-21T07:17:27.731Z,64.51
2023-03-21T07:19:54.523Z,64.83
2023-03-21T07:22:21.390Z,64.94
2023-03-21T07:24:55.952Z,66.54
2023-03-21T07:27:30.650Z,67.56
2023-03-21T07:29:58.609Z,65.67
2023-03-21T07:32:25.558Z,65.21
2023-03-21T07:34:54.604Z,67.79
2023-03-21T07:37:21.535Z,69.94
2023-03-21T07:39:48.667Z,69.11
2023-03-21T07:42:16.163Z,67.70
2023-03-21T07:44:44.428Z,66.86
2023-03-21T07:47:11.791Z,69.71
2023-03-21T07:49:38.928Z,66.60
2023-03-21T07:52:06.698Z,66.93
2023-03-21T07:54:34.052Z,64.30
2023-03-21T07:57:02.092Z,63.46
2023-03-21T07:59:28.928Z,66.04
2023-03-21T08:01:56.000Z,66.96
2023-03-21T08:04:23.357Z,67.21
2023-03-21T08:06:51.127Z,67.32
2023-03-21T08:09:18.282Z,66.23
2023-03-21T08:11:47.785Z,66.68
2023-03-21T08:14:14.627Z,66.95
2023-03-21T08:16:41.462Z,65.06
2023-03-21T08:19:10.578Z,65.48
2023-03-21T08:21:37.853Z,67.80
2023-03-21T08:24:06.009Z,66.39
2023-03-21T08:26:34.008Z,64.03
2023-03-21T08:29:01.314Z,64.87
2023-03-21T08:31:28.205Z,64.69
2023-03-21T08:33:55.166Z,64.68
2023-03-21T08:36:25.042Z,64.92
2023-03-21T08:38:52.265Z,65.46
2023-03-21T08:41:19.067Z,64.16
2023-03-21T08:43:46.071Z,64.74
2023-03-21T08:46:13.276Z,65.70
2023-03-21T08:48:40.572Z,61.71
2023-03-21T08:51:07.787Z,64.86
2023-03-21T08:53:35.422Z,64.07
2023-03-21T08:56:02.257Z,61.89
2023-03-21T08:58:29.998Z,59.39
2023-03-21T09:00:57.393Z,59.98
2023-03-21T09:03:24.118Z,60.62
2023-03-21T09:05:53.685Z,60.44
2023-03-21T09:08:20.933Z,62.33
2023-03-21T09:11:09.572Z,61.08
2023-03-21T09:13:57.551Z,59.10
2023-03-21T09:16:45.538Z,57.69
2023-03-21T09:19:33.706Z,57.20
2023-03-21T09:22:00.760Z,54.94
2023-03-21T09:24:27.961Z,57.03
2023-03-21T09:26:57.711Z,57.46
2023-03-21T09:29:24.774Z,55.77
2023-03-21T09:31:51.858Z,55.97
2023-03-21T09:34:19.043Z,54.84
2023-03-21T09:36:46.145Z,53.92
2023-03-21T09:39:13.379Z,57.44
2023-03-21T09:41:44.397Z,57.44
2023-03-21T09:44:39.160Z,57.64
2023-03-21T09:47:26.818Z,56.65
2023-03-21T09:50:14.787Z,54.90
2023-03-21T09:52:59.820Z,55.17
2023-03-21T09:55:36.122Z,55.88
2023-03-21T09:58:34.819Z,55.65
2023-03-21T10:01:09.418Z,54.38
2023-03-21T10:03:36.619Z,54.62
2023-03-21T10:06:10.690Z,53.63
2023-03-21T10:08:40.469Z,53.46
2023-03-21T10:11:14.531Z,53.22
2023-03-21T10:13:48.505Z,51.90
2023-03-21T10:16:19.787Z,54.60
2023-03-21T10:18:50.123Z,54.76
2023-03-21T10:21:47.413Z,53.63
2023-03-21T10:24:19.141Z,53.37
2023-03-21T10:26:48.305Z,51.47
2023-03-21T10:29:16.053Z,51.78
2023-03-21T10:31:44.501Z,51.23
2023-03-21T10:34:27.349Z,52.44
2023-03-21T10:36:54.957Z,50.02
2023-03-21T10:39:37.302Z,52.88
2023-03-21T10:42:05.332Z,51.90
2023-03-21T10:44:33.982Z,56.29
2023-03-21T10:47:09.399Z,53.25
2023-03-21T10:49:56.399Z,53.48
2023-03-21T10:52:24.559Z,49.86
2023-03-21T10:54:51.658Z,51.38
2023-03-21T10:57:23.348Z,50.78
2023-03-21T10:59:58.919Z,51.51
2023-03-21T11:02:37.088Z,52.14
2023-03-21T11:05:06.585Z,52.93
2023-03-21T11:07:33.894Z,51.27
2023-03-21T11:10:01.531Z,52.29
2023-03-21T11:12:40.478Z,51.97
2023-03-21T11:15:31.385Z,51.04
2023-03-21T11:18:00.208Z,49.64
2023-03-21T11:20:29.880Z,50.89
2023-03-21T11:23:02.097Z,49.41
2023-03-21T11:25:40.435Z,49.50
2023-03-21T11:28:12.722Z,48.47
2023-03-21T11:30:39.526Z,47.65
2023-03-21T11:33:06.721Z,48.38
2023-03-21T11:35:38.290Z,50.47
2023-03-21T11:38:05.527Z,51.03
2023-03-21T11:40:33.727Z,47.55
2023-03-21T11:43:04.089Z,48.49
2023-03-21T11:45:32.905Z,48.75
2023-03-21T11:48:01.593Z,45.71
2023-03-21T11:50:37.068Z,47.48
2023-03-21T11:53:19.470Z,46.60
2023-03-21T11:56:01.218Z,46.83
2023-03-21T11:58:33.008Z,46.25
2023-03-21T12:01:26.388Z,44.96
2023-03-21T12:04:15.826Z,43.56
2023-03-21T12:06:50.139Z,44.92
2023-03-21T12:09:32.257Z,48.91
2023-03-21T12:12:18.698Z,47.67
2023-03-21T12:15:20.913Z,46.62
2023-03-21T12:18:35.562Z,45.64
2023-03-21T12:21:06.592Z,45.75
2023-03-21T12:24:07.595Z,45.64
2023-03-21T12:26:50.482Z,45.56
2023-03-21T12:29:42.084Z,43.55
2023-03-21T12:32:24.898Z,46.58
2023-03-21T12:35:13.274Z,45.80
2023-03-21T12:38:02.277Z,45.05
2023-03-21T12:40:36.213Z,45.66
2023-03-21T12:43:37.630Z,43.85
2023-03-21T12:46:10.192Z,43.36
2023-03-21T12:49:01.311Z,43.66
2023-03-21T12:52:00.029Z,42.64
2023-03-21T12:54:37.475Z,43.20
2023-03-21T12:57:23.030Z,43.19
2023-03-21T13:00:05.771Z,44.10
2023-03-21T13:02:38.605Z,44.91
2023-03-21T13:05:21.970Z,43.37
2023-03-21T13:08:13.915Z,44.43
2023-03-21T13:10:41.155Z,41.02
2023-03-21T13:13:20.908Z,41.38
2023-03-21T13:15:53.545Z,40.20
2023-03-21T13:19:05.342Z,42.09
2023-03-21T13:21:40.174Z,41.27
2023-03-21T13:24:22.418Z,40.85
2023-03-21T13:26:50.845Z,41.78
2023-03-21T13:29:27.415Z,41.23
2023-03-21T13:31:57.354Z,39.70
2023-03-21T13:34:24.548Z,41.17
2023-03-21T13:36:52.041Z,41.13
2023-03-21T13:39:26.988Z,41.33
2023-03-21T13:41:53.983Z,40.95
2023-03-21T13:44:36.848Z,41.69
2023-03-21T13:47:05.656Z,42.24
2023-03-21T13:49:34.704Z,42.57
2023-03-21T13:52:03.754Z,42.46
2023-03-21T13:54:53.699Z,41.61
2023-03-21T13:57:22.816Z,41.21
2023-03-21T13:59:52.341Z,41.05
2023-03-21T14:02:36.266Z,41.17
2023-03-21T14:05:08.456Z,39.14
2023-03-21T14:07:41.159Z,40.65
2023-03-21T14:10:24.578Z,39.34
2023-03-21T14:12:51.843Z,38.40
2023-03-21T14:15:55.004Z,40.23
2023-03-21T14:18:35.112Z,40.95
2023-03-21T14:21:24.537Z,41.07
2023-03-21T14:24:05.825Z,39.87
2023-03-21T14:26:38.243Z,43.00
2023-03-21T14:29:12.252Z,41.45
2023-03-21T14:31:47.732Z,41.78
2023-03-21T14:34:15.768Z,42.41
2023-03-21T14:36:51.682Z,41.59
2023-03-21T14:39:26.324Z,40.39
2023-03-21T14:42:33.919Z,41.72
2023-03-21T14:45:05.662Z,41.45
2023-03-21T14:47:32.848Z,41.86
2023-03-21T14:49:59.722Z,42.24
2023-03-21T14:52:31.871Z,43.18
2023-03-21T14:54:59.116Z,43.66
2023-03-21T14:57:32.953Z,45.22
2023-03-21T15:00:01.597Z,43.01
2023-03-21T15:02:34.352Z,43.68
2023-03-21T15:05:26.270Z,42.32
2023-03-21T15:08:16.397Z,41.79
2023-03-21T15:11:06.926Z,43.30
2023-03-21T15:13:46.737Z,42.79
2023-03-21T15:16:19.188Z,41.99
2023-03-21T15:18:46.633Z,41.49
2023-03-21T15:21:38.229Z,42.43
2023-03-21T15:24:10.666Z,43.08
2023-03-21T15:26:37.848Z,42.69
2023-03-21T15:29:05.418Z,44.29
2023-03-21T15:31:35.243Z,43.37
2023-03-21T15:34:03.712Z,43.39
2023-03-21T15:36:35.476Z,42.06
2023-03-21T15:39:06.539Z,42.76
2023-03-21T15:41:33.862Z,42.87
2023-03-21T15:44:17.225Z,43.04
2023-03-21T15:46:48.653Z,41.78
2023-03-21T15:49:19.174Z,42.71
2023-03-21T15:52:07.807Z,42.89
2023-03-21T15:58:13.182Z,44.86
2023-03-21T16:00:41.893Z,46.32
2023-03-21T16:03:17.567Z,47.40
2023-03-21T16:06:13.372Z,45.46
2023-03-21T16:08:45.558Z,45.82
2023-03-21T16:11:58.454Z,44.90
2023-03-21T16:14:26.464Z,45.01
2023-03-21T16:16:53.588Z,45.61
2023-03-21T16:19:21.150Z,44.46
2023-03-21T16:21:48.289Z,45.36
2023-03-21T16:24:15.140Z,45.91
2023-03-21T16:26:47.343Z,44.82
2023-03-21T16:29:14.872Z,45.38
2023-03-21T16:31:41.818Z,45.42
2023-03-21T16:34:08.664Z,45.09
2023-03-21T16:36:39.837Z,43.20
2023-03-21T16:39:20.445Z,43.01
2023-03-21T16:41:47.843Z,41.52
2023-03-21T16:44:15.378Z,42.47
2023-03-21T16:46:42.417Z,41.57
2023-03-21T16:49:28.384Z,42.04
2023-03-21T16:51:58.780Z,41.41
2023-03-21T16:54:25.752Z,42.30
2023-03-21T16:56:53.710Z,42.98
2023-03-21T16:59:21.076Z,41.93
2023-03-21T17:01:49.022Z,43.34
2023-03-21T17:04:17.267Z,44.26
2023-03-21T17:06:52.196Z,44.17
2023-03-21T17:09:23.689Z,42.99
2023-03-21T17:11:50.426Z,43.25
2023-03-21T17:14:17.146Z,41.09
2023-03-21T17:16:44.914Z,43.42
2023-03-21T17:19:21.894Z,43.64
2023-03-21T17:21:49.202Z,43.73
2023-03-21T17:24:16.716Z,44.37
2023-03-21T17:26:43.797Z,45.46
2023-03-21T17:29:13.698Z,43.90
2023-03-21T17:31:40.472Z,44.39
2023-03-21T17:34:07.242Z,43.17
2023-03-21T17:36:39.105Z,43.96
2023-03-21T17:39:07.249Z,45.05
2023-03-21T17:41:35.229Z,45.67
2023-03-21T17:44:02.566Z,45.92
2023-03-21T17:46:29.619Z,45.03
2023-03-21T17:48:56.668Z,43.41
2023-03-21T17:51:23.812Z,43.96
2023-03-21T17:53:50.567Z,48.80
2023-03-21T17:56:24.773Z,48.48
2023-03-21T17:58:52.472Z,49.14
2023-03-21T18:01:19.242Z,47.89
2023-03-21T18:03:46.379Z,49.88
2023-03-21T18:06:18.372Z,51.85
2023-03-21T18:08:45.881Z,50.22
2023-03-21T18:11:13.027Z,51.03
2023-03-21T18:13:40.831Z,51.01
2023-03-21T18:16:09.948Z,50.70
2023-03-21T18:18:36.908Z,53.23
2023-03-21T18:21:05.361Z,52.17
2023-03-21T18:23:33.790Z,51.76
2023-03-21T18:26:01.168Z,52.85
2023-03-21T18:28:27.884Z,50.60
2023-03-21T18:31:09.616Z,51.15
2023-03-21T18:33:38.116Z,51.81
2023-03-21T18:36:07.704Z,52.75
2023-03-21T18:38:45.274Z,49.99
2023-03-21T18:41:12.629Z,49.19
2023-03-21T18:46:38.267Z,50.48
2023-03-21T18:49:42.182Z,53.61
2023-03-21T18:51:54.746Z,55.54
2023-03-21T18:54:21.505Z,55.73
2023-03-21T18:57:31.877Z,54.92
2023-03-21T18:59:35.708Z,55.57
2023-03-21T19:02:05.535Z,57.30
2023-03-21T19:04:33.273Z,57.53
2023-03-21T19:07:00.532Z,58.75
2023-03-21T19:09:31.581Z,58.35
2023-03-21T19:11:59.152Z,58.55
2023-03-21T19:14:26.062Z,59.01
2023-03-21T19:19:39.574Z,60.10
2023-03-21T19:25:19.172Z,60.46
2023-03-21T19:27:46.477Z,61.09
2023-03-21T19:30:15.553Z,61.09
2023-03-21T19:32:43.399Z,61.49
2023-03-21T19:35:10.311Z,60.60
2023-03-21T19:37:37.032Z,61.21
2023-03-21T19:40:05.637Z,61.50
2023-03-21T19:42:34.660Z,60.69
2023-03-21T19:45:01.535Z,61.95
2023-03-21T19:47:28.418Z,61.35
2023-03-21T19:50:40.774Z,61.48
2023-03-21T19:52:42.011Z,60.71
2023-03-21T19:55:08.844Z,60.12
2023-03-21T19:57:35.871Z,61.60
2023-03-21T20:00:26.464Z,63.06
2023-03-21T20:02:54.273Z,63.49
2023-03-21T20:05:21.104Z,63.82
2023-03-21T20:08:10.652Z,63.00
2023-03-21T20:10:37.877Z,63.07
2023-03-21T20:13:04.939Z,63.00
2023-03-21T20:15:32.058Z,62.78
2023-03-21T20:17:58.722Z,62.78
2023-03-21T20:20:25.874Z,62.30
2023-03-21T20:23:06.418Z,63.60
2023-03-21T20:25:34.313Z,62.95
2023-03-21T20:28:15.055Z,62.18
2023-03-21T20:30:53.084Z,62.41
2023-03-21T20:33:19.941Z,61.57
2023-03-21T20:36:32.225Z,61.88
2023-03-21T20:38:33.596Z,62.68
2023-03-21T20:41:00.802Z,62.13
2023-03-21T20:46:14.312Z,62.27
2023-03-21T20:48:42.070Z,62.34
2023-03-21T20:52:14.828Z,62.52
2023-03-21T20:53:58.238Z,63.41
2023-03-21T20:56:25.012Z,63.19
2023-03-21T20:59:04.812Z,62.17
2023-03-21T21:01:38.658Z,60.90
2023-03-21T21:04:09.569Z,60.52
2023-03-21T21:06:36.405Z,59.90
2023-03-21T21:09:03.107Z,60.71
2023-03-21T21:14:17.286Z,59.69
2023-03-21T21:16:44.978Z,59.92
2023-03-21T21:19:12.190Z,60.46
2023-03-21T21:21:40.597Z,59.97
2023-03-21T21:24:08.862Z,60.44
2023-03-21T21:26:36.094Z,60.01
2023-03-21T21:29:05.666Z,60.80
2023-03-21T21:31:32.568Z,60.66
2023-03-21T21:33:59.335Z,60.52
2023-03-21T21:36:31.474Z,61.02
2023-03-21T21:38:58.677Z,60.95
2023-03-21T21:41:26.485Z,60.03
2023-03-21T21:43:53.730Z,60.65
2023-03-21T21:46:23.004Z,61.58
2023-03-21T21:48:49.813Z,61.11
2023-03-21T21:51:17.159Z,61.48
2023-03-21T21:53:45.881Z,61.12
2023-03-21T21:56:12.634Z,60.00
2023-03-21T21:58:40.838Z,60.64
2023-03-21T22:01:08.279Z,60.64
2023-03-21T22:03:36.351Z,61.21
2023-03-21T22:06:03.270Z,60.79
2023-03-21T22:08:30.347Z,61.70
2023-03-21T22:10:57.443Z,61.59
2023-03-21T22:13:24.601Z,60.09
2023-03-21T22:15:51.341Z,61.02
2023-03-21T22:18:18.054Z,60.74
2023-03-21T22:20:44.922Z,60.33
2023-03-21T22:23:14.497Z,61.00
2023-03-21T22:25:42.195Z,61.44
2023-03-21T22:28:09.433Z,61.84
2023-03-21T22:30:36.535Z,61.84
2023-03-21T22:33:09.736Z,62.06
2023-03-21T22:35:38.743Z,62.31
2023-03-21T22:38:06.469Z,61.73
2023-03-21T22:40:34.859Z,62.00
2023-03-21T22:43:01.610Z,61.84
2023-03-21T22:45:31.183Z,61.86
2023-03-21T22:47:59.443Z,62.20
2023-03-21T22:50:29.132Z,62.25
2023-03-21T22:52:56.163Z,61.89
2023-03-21T22:55:22.841Z,62.52
2023-03-21T22:57:50.028Z,62.23
2023-03-21T23:00:19.125Z,63.05
2023-03-21T23:02:47.626Z,63.29
2023-03-21T23:05:15.150Z,62.59
2023-03-21T23:07:43.546Z,62.55
2023-03-21T23:10:13.745Z,62.81
2023-03-21T23:12:44.034Z,64.07
2023-03-21T23:15:11.150Z,64.11
2023-03-21T23:17:38.900Z,63.09
2023-03-21T23:20:06.876Z,64.32
2023-03-21T23:22:36.550Z,62.89
2023-03-21T23:25:04.278Z,64.33
2023-03-21T23:27:31.587Z,63.51
2023-03-21T23:29:58.269Z,62.77
2023-03-21T23:32:25.532Z,63.41
2023-03-21T23:34:54.371Z,62.87
2023-03-21T23:37:21.163Z,63.67
2023-03-21T23:39:47.958Z,62.84
2023-03-21T23:42:15.019Z,63.71
2023-03-21T23:44:42.114Z,64.39
2023-03-21T23:47:09.174Z,64.63
2023-03-21T23:49:36.121Z,65.36
2023-03-21T23:52:04.302Z,65.67
2023-03-21T23:54:31.461Z,66.59
2023-03-21T23:57:00.236Z,66.43
2023-03-21T23:59:26.974Z,66.02
